Flight Track Log - Related Links

Times and Time Zones

All times are in EDT time to prevent confusion due to time zone crossing. See the ASH2828 flight status page for this flight to view local times or setup timezone preferences in your user account.

Time Position Orientation Groundspeed Altitude Reporting Facility
EDT Latitude Longitude Course Direction KTS MPH feet Rate Location/Type
Mon 10:35:55 PM 33.8433 -118.1797 90° East 180 207 1,400  Level Los Angeles Center
Mon 10:36:57 PM 33.8244 -118.2367 248° West 221 254 4,100 2,634 Climbing Los Angeles Center
Mon 10:37:58 PM 33.7650 -118.2531 193° South 217 250 6,800 2,146 Climbing Los Angeles Center
Mon 10:39:00 PM 33.6983 -118.2553 182° South 243 280 8,500 2,177 Climbing Los Angeles Center
Mon 10:40:02 PM 33.6736 -118.1714 109° East 269 310 11,300 2,177 Climbing Los Angeles Center
Mon 10:41:00 PM 33.5833 -117.7462 90° East  Level FlightAware Approximate
Mon 10:41:04 PM 33.6614 -118.0764 99° East 285 328 13,000  Level Los Angeles Center
Mon 10:42:05 PM 33.6594 -117.9644 91° East 334 384 14,600 1,659 Climbing Los Angeles Center
Mon 10:43:07 PM 33.6569 -117.8450 91° East 355 409 16,400 1,984 Climbing Los Angeles Center
Mon 10:44:09 PM 33.6553 -117.7206 91° East 370 426 18,700 2,129 Climbing Los Angeles Center
Mon 10:45:11 PM 33.6531 -117.5672 91° East 382 440 20,800 1,887 Climbing Los Angeles Center
Mon 10:46:13 PM 33.6528 -117.4364 90° East 391 450 22,600 1,610 Climbing Los Angeles Center
Mon 10:47:14 PM 33.6506 -117.3019 91° East 406 467 24,100 1,366 Climbing Los Angeles Center
Mon 10:48:16 PM 33.6481 -117.1650 91° East 411 473 25,400 1,452 Climbing Los Angeles Center
Mon 10:49:18 PM 33.6458 -117.0244 91° East 421 484 27,100 1,452 Climbing Los Angeles Center
Mon 10:50:20 PM 33.6428 -116.8842 91° East 423 487 28,400 1,161 Climbing Los Angeles Center
Mon 10:51:22 PM 33.6400 -116.7131 91° East 430 495 29,500 1,122 Climbing Los Angeles Center
Mon 10:52:23 PM 33.6372 -116.5642 91° East 441 507 30,700 1,122 Climbing Los Angeles Center
Mon 10:53:25 PM 33.6339 -116.4133 91° East 448 516 31,800 1,016 Climbing Los Angeles Center
Mon 10:54:27 PM 33.6308 -116.2644 91° East 447 514 32,800 581 Climbing Los Angeles Center
Mon 10:55:29 PM 33.6269 -116.1092 92° East 456 525 33,000 88 Climbing Los Angeles Center
Mon 10:56:43 PM 33.6206 -115.9572 93° East 456 525 33,000  Level Los Angeles Center
Mon 10:57:45 PM 33.6050 -115.7789 96° East 448 516 33,000  Level Los Angeles Center
Mon 10:58:47 PM 33.5933 -115.6286 95° East 451 519 33,000  Level Los Angeles Center
Mon 10:59:49 PM 33.5783 -115.4450 96° East 460 529 33,000  Level Los Angeles Center
Mon 11:00:50 PM 33.5672 -115.2919 95° East 461 531 33,000  Level Los Angeles Center
Mon 11:01:52 PM 33.5542 -115.1394 96° East 460 529 33,000  Level Los Angeles Center
Mon 11:02:54 PM 33.5403 -114.9867 96° East 462 532 33,000  Level Los Angeles Center
Mon 11:03:56 PM 33.5281 -114.8342 95° East 461 531 33,000 -774 Level Los Angeles Center
Mon 11:04:58 PM 33.5142 -114.6825 96° East 458 527 31,400 -1,805 Descending Los Angeles Center
Mon 11:05:59 PM 33.5008 -114.5297 96° East 461 531 29,300 -2,195 Descending Los Angeles Center
Mon 11:07:01 PM 33.4853 -114.3478 96° East 458 527 26,900 -2,000 Descending Los Angeles Center
Mon 11:07:32 PM 33.4833 -114.2939 92° East 456 525 26,200 -1,226 Descending Albuquerque Center
Mon 11:08:34 PM 33.4703 -114.1461 96° East 450 518 25,000 -585 Descending Albuquerque Center
Mon 11:09:35 PM 33.4475 -113.9875 100° East 406 467 25,000  Level Albuquerque Center
Mon 11:10:36 PM 33.4286 -113.8522 99° East 407 468 25,000  Level Albuquerque Center
Mon 11:11:37 PM 33.4097 -113.7164 99° East 412 474 25,000 -537 Level Albuquerque Center
Mon 11:12:39 PM 33.3903 -113.5797 100° East 414 476 23,900 -1,268 Descending Albuquerque Center
Mon 11:13:40 PM 33.3714 -113.4400 99° East 422 486 22,400 -1,475 Descending Albuquerque Center
Mon 11:14:41 PM 33.3519 -113.3067 100° East 413 475 20,900 -1,475 Descending Albuquerque Center
Mon 11:15:42 PM 33.3325 -113.1800 100° East 396 456 19,400 -1,463 Descending Albuquerque Center
Mon 11:16:44 PM 33.3156 -113.0553 99° East 385 443 17,900 -1,366 Descending Albuquerque Center
Mon 11:17:45 PM 33.2972 -112.9331 100° East 378 435 16,600 -1,180 Descending Albuquerque Center
Mon 11:18:46 PM 33.2806 -112.8214 100° East 355 409 15,500 -829 Descending Albuquerque Center
Mon 11:19:48 PM 33.2831 -112.7158 88° East 322 371 14,900 -683 Descending Albuquerque Center
Mon 11:20:49 PM 33.2847 -112.6094 89° East 319 367 14,100 -1,082 Descending Albuquerque Center
Mon 11:21:50 PM 33.2872 -112.5014 88° East 314 361 12,700 -1,426 Descending Albuquerque Center
Mon 11:22:51 PM 33.2911 -112.3772 88° East 312 359 11,200 -1,268 Descending Albuquerque Center
Mon 11:23:53 PM 33.2969 -112.2783 86° East 302 348 10,100 -1,024 Descending Albuquerque Center
Mon 11:24:54 PM 33.3042 -112.1819 85° East 296 341 9,100 -639 Descending Albuquerque Center
Mon 11:25:55 PM 33.3119 -112.0944 84° East 270 311 8,800 -683 Descending Albuquerque Center
Mon 11:26:57 PM 33.3314 -112.0158 73° East 252 290 7,700 -1,024 Descending Albuquerque Center
Mon 11:27:58 PM 33.3489 -111.9397 75° East 241 277 6,700 -1,230 Descending Albuquerque Center
Mon 11:28:59 PM 33.3661 -111.8653 74° East 235 270 5,200 -1,512 Descending Albuquerque Center
Mon 11:30:01 PM 33.4178 -111.8500 14° North 209 241 3,600 -1,317 Descending Albuquerque Center
Mon 11:31:02 PM 33.4411 -111.8956 302° West 168 193 2,500 -973 Descending Albuquerque Center
Mon 11:31:52 PM 33.4333 -111.9500 260° West 141 162 1,800 -840 Descending Phoenix TRACON

Login

Don't have an account? Register now (free) for customized features, flight alerts, and more!